createdAt,value
2018-06-25T00:01:06.431Z,22.19
2018-06-25T00:03:13.308Z,22.15
2018-06-25T00:05:18.891Z,22.13
2018-06-25T00:07:24.202Z,22.13
2018-06-25T00:09:29.547Z,22.10
2018-06-25T00:11:35.355Z,22.07
2018-06-25T00:13:40.698Z,22.06
2018-06-25T00:15:46.060Z,22.04
2018-06-25T00:17:51.488Z,22.04
2018-06-25T00:19:56.808Z,22.06
2018-06-25T00:22:02.225Z,22.07
2018-06-25T00:24:07.647Z,22.03
2018-06-25T00:26:12.626Z,21.99
2018-06-25T00:28:17.937Z,21.96
2018-06-25T00:30:23.260Z,21.93
2018-06-25T00:32:28.673Z,21.94
2018-06-25T00:34:34.212Z,21.95
2018-06-25T00:36:39.730Z,21.92
2018-06-25T00:38:45.081Z,21.90
2018-06-25T00:40:50.366Z,21.88
2018-06-25T00:42:58.347Z,21.87
2018-06-25T00:45:03.753Z,21.84
2018-06-25T00:47:09.120Z,21.86
2018-06-25T00:49:14.495Z,21.85
2018-06-25T00:51:19.850Z,21.85
2018-06-25T00:53:26.115Z,21.86
2018-06-25T00:55:31.475Z,21.87
2018-06-25T00:57:36.844Z,21.87
2018-06-25T00:59:56.758Z,21.87
2018-06-25T01:02:02.149Z,21.81
2018-06-25T01:04:07.521Z,21.79
2018-06-25T01:06:13.078Z,21.76
2018-06-25T01:08:18.403Z,21.73
2018-06-25T01:10:23.754Z,21.75
2018-06-25T01:12:29.305Z,21.77
2018-06-25T01:14:34.651Z,21.78
2018-06-25T01:16:39.975Z,21.78
2018-06-25T01:18:45.268Z,21.79
2018-06-25T01:20:50.627Z,21.80
2018-06-25T01:22:56.034Z,21.80
2018-06-25T01:25:01.328Z,21.81
2018-06-25T01:27:09.631Z,21.77
2018-06-25T01:29:15.053Z,21.78
2018-06-25T01:31:20.380Z,21.73
2018-06-25T01:33:26.171Z,21.72
2018-06-25T01:35:31.646Z,21.72
2018-06-25T01:37:36.963Z,21.71
2018-06-25T01:39:42.296Z,21.70
2018-06-25T01:41:47.661Z,21.68
2018-06-25T01:43:52.954Z,21.67
2018-06-25T01:46:01.169Z,21.64
2018-06-25T01:48:07.051Z,21.61
2018-06-25T01:50:12.336Z,21.61
2018-06-25T01:52:17.655Z,21.60
2018-06-25T01:54:23.443Z,21.56
2018-06-25T01:56:28.787Z,21.50
2018-06-25T01:58:34.331Z,21.52
2018-06-25T02:00:39.658Z,21.50
2018-06-25T02:02:45.092Z,21.50
2018-06-25T02:04:50.464Z,21.49
2018-06-25T02:06:55.847Z,21.48
2018-06-25T02:09:01.330Z,21.49
2018-06-25T02:11:06.705Z,21.50
2018-06-25T02:13:12.161Z,21.50
2018-06-25T02:15:17.492Z,21.52
2018-06-25T02:17:22.849Z,21.53
2018-06-25T02:19:28.167Z,21.53
2018-06-25T02:21:33.462Z,21.49
2018-06-25T02:23:39.075Z,21.50
2018-06-25T02:25:44.573Z,21.50
2018-06-25T02:27:49.850Z,21.51
2018-06-25T02:29:55.249Z,21.53
2018-06-25T02:32:00.633Z,21.54
2018-06-25T02:34:06.596Z,21.52
2018-06-25T02:36:11.995Z,21.53
2018-06-25T02:38:17.355Z,21.54
2018-06-25T02:40:22.634Z,21.53
2018-06-25T02:42:27.931Z,21.52
2018-06-25T02:44:33.301Z,21.51
2018-06-25T02:46:39.057Z,21.47
2018-06-25T02:48:44.437Z,21.52
2018-06-25T02:50:49.762Z,21.51
2018-06-25T02:52:55.322Z,21.49
2018-06-25T02:55:00.669Z,21.49
2018-06-25T02:57:06.034Z,21.48
2018-06-25T02:59:11.389Z,21.46
2018-06-25T03:01:16.699Z,21.45
2018-06-25T03:03:21.992Z,21.43
2018-06-25T03:05:27.324Z,21.42
2018-06-25T03:07:32.605Z,21.41
2018-06-25T03:09:38.020Z,21.41
2018-06-25T03:11:43.304Z,21.41
2018-06-25T03:13:48.644Z,21.39
2018-06-25T03:15:54.037Z,21.38
2018-06-25T03:17:59.069Z,21.37
2018-06-25T03:20:04.383Z,21.35
2018-06-25T03:22:09.715Z,21.34
2018-06-25T03:24:15.008Z,21.30
2018-06-25T03:26:20.331Z,21.29
2018-06-25T03:28:26.503Z,21.31
2018-06-25T03:30:31.928Z,21.32
2018-06-25T03:32:37.315Z,21.31
2018-06-25T03:34:42.648Z,21.29
2018-06-25T03:36:48.094Z,21.29
2018-06-25T03:38:53.477Z,21.27
2018-06-25T03:40:58.442Z,21.27
2018-06-25T03:43:03.728Z,21.27
2018-06-25T03:45:09.064Z,21.27
2018-06-25T03:47:14.460Z,21.26
2018-06-25T03:49:19.846Z,21.28
2018-06-25T03:51:26.526Z,21.31
2018-06-25T03:53:31.849Z,21.34
2018-06-25T03:55:37.288Z,21.37
2018-06-25T03:57:42.644Z,21.38
2018-06-25T03:59:47.988Z,21.39
2018-06-25T04:01:53.332Z,21.42
2018-06-25T04:03:58.736Z,21.42
2018-06-25T04:06:04.083Z,21.44
2018-06-25T04:08:09.381Z,21.46
2018-06-25T04:10:14.740Z,21.46
2018-06-25T04:12:20.062Z,21.48
2018-06-25T04:14:26.548Z,21.51
2018-06-25T04:16:31.951Z,21.53
2018-06-25T04:18:37.328Z,21.55
2018-06-25T04:20:42.985Z,21.55
2018-06-25T04:22:48.355Z,21.55
2018-06-25T04:24:53.674Z,21.53
2018-06-25T04:26:59.083Z,21.55
2018-06-25T04:29:04.531Z,21.52
2018-06-25T04:31:10.005Z,21.50
2018-06-25T04:33:15.532Z,21.49
2018-06-25T04:35:20.923Z,21.48
2018-06-25T04:37:27.112Z,21.53
2018-06-25T04:39:32.487Z,21.57
2018-06-25T04:41:37.857Z,21.59
2018-06-25T04:43:43.868Z,21.60
2018-06-25T04:45:49.177Z,21.63
2018-06-25T04:47:54.487Z,21.61
2018-06-25T04:49:59.879Z,21.59
2018-06-25T04:52:05.345Z,21.58
2018-06-25T04:54:10.689Z,21.54
2018-06-25T04:56:16.190Z,21.50
2018-06-25T04:58:21.517Z,21.47
2018-06-25T05:00:26.845Z,21.48
2018-06-25T05:02:32.211Z,21.51
2018-06-25T05:04:37.531Z,21.53
2018-06-25T05:06:42.845Z,21.56
2018-06-25T05:08:48.225Z,21.55
2018-06-25T05:10:53.540Z,21.59
2018-06-25T05:12:58.899Z,21.63
2018-06-25T05:15:04.299Z,21.67
2018-06-25T05:17:09.606Z,21.68
2018-06-25T05:19:14.977Z,21.74
2018-06-25T05:21:20.281Z,21.81
2018-06-25T05:23:26.691Z,21.88
2018-06-25T05:25:32.015Z,21.94
2018-06-25T05:27:37.328Z,22.05
2018-06-25T05:29:42.626Z,22.11
2018-06-25T05:31:48.013Z,22.16
2018-06-25T05:33:53.335Z,22.21
2018-06-25T05:35:59.648Z,22.27
2018-06-25T05:38:04.999Z,22.27
2018-06-25T05:40:10.412Z,22.28
2018-06-25T05:42:22.621Z,22.30
2018-06-25T05:44:28.006Z,22.33
2018-06-25T05:46:33.330Z,22.36
2018-06-25T05:48:38.661Z,22.39
2018-06-25T05:50:43.997Z,22.40
2018-06-25T05:52:49.348Z,22.41
2018-06-25T05:54:54.718Z,22.44
2018-06-25T05:57:00.054Z,22.44
2018-06-25T05:59:05.492Z,22.43
2018-06-25T06:01:10.823Z,22.39
2018-06-25T06:03:16.112Z,22.38
2018-06-25T06:05:21.536Z,22.41
2018-06-25T06:07:26.893Z,22.38
2018-06-25T06:09:32.219Z,22.32
2018-06-25T06:11:37.665Z,22.24
2018-06-25T06:13:43.006Z,22.20
2018-06-25T06:15:48.307Z,22.21
2018-06-25T06:17:53.662Z,22.25
2018-06-25T06:19:58.971Z,22.28
2018-06-25T06:22:04.316Z,22.26
2018-06-25T06:24:09.661Z,22.20
2018-06-25T06:26:15.083Z,22.20
2018-06-25T06:28:20.428Z,22.23
2018-06-25T06:30:26.869Z,22.27
2018-06-25T06:32:32.218Z,22.29
2018-06-25T06:34:37.625Z,22.27
2018-06-25T06:36:44.987Z,22.21
2018-06-25T06:38:50.350Z,22.13
2018-06-25T06:40:57.854Z,22.09
2018-06-25T06:43:03.205Z,22.09
2018-06-25T06:45:08.557Z,22.12
2018-06-25T06:49:27.870Z,22.24
2018-06-25T06:51:33.465Z,22.29
2018-06-25T06:53:38.821Z,22.34
2018-06-25T06:55:44.262Z,22.35
2018-06-25T06:57:49.644Z,22.32
2018-06-25T06:59:55.053Z,22.28
2018-06-25T07:02:00.398Z,22.23
2018-06-25T07:04:05.735Z,22.18
2018-06-25T07:06:11.113Z,22.17
2018-06-25T07:08:16.467Z,22.16
2018-06-25T07:10:22.717Z,22.14
2018-06-25T07:12:28.040Z,22.16
2018-06-25T07:14:33.410Z,22.20
2018-06-25T07:16:39.756Z,22.27
2018-06-25T07:18:45.282Z,22.32
2018-06-25T07:20:50.646Z,22.36
2018-06-25T07:22:56.108Z,22.41
2018-06-25T07:25:01.488Z,22.47
2018-06-25T07:27:07.196Z,22.48
2018-06-25T07:29:12.566Z,22.50
2018-06-25T07:31:27.101Z,22.56
2018-06-25T07:33:35.731Z,22.61
2018-06-25T07:35:46.567Z,22.62
2018-06-25T07:37:56.102Z,22.65
2018-06-25T07:40:13.366Z,22.68
2018-06-25T07:42:25.137Z,22.71
2018-06-25T07:44:36.712Z,22.72
2018-06-25T07:46:46.009Z,22.73
2018-06-25T07:49:06.363Z,22.80
2018-06-25T07:51:24.641Z,22.87
2018-06-25T07:53:30.662Z,22.96
2018-06-25T07:55:36.127Z,23.03
2018-06-25T07:57:41.535Z,23.05
2018-06-25T07:59:46.994Z,23.05
2018-06-25T08:01:52.573Z,23.11
2018-06-25T08:03:57.955Z,23.21
2018-06-25T08:06:03.601Z,23.31
2018-06-25T08:08:09.108Z,23.33
2018-06-25T08:10:14.632Z,23.36
2018-06-25T08:12:21.149Z,23.37
2018-06-25T08:14:27.164Z,23.41
2018-06-25T08:16:32.492Z,23.45
2018-06-25T08:18:38.147Z,23.43
2018-06-25T08:20:43.590Z,23.37
2018-06-25T08:22:48.933Z,23.37
2018-06-25T08:24:54.432Z,23.44
2018-06-25T08:29:37.634Z,23.52
2018-06-25T08:32:51.708Z,23.54
2018-06-25T08:35:18.771Z,23.51
2018-06-25T08:37:28.784Z,23.46
2018-06-25T08:39:41.575Z,23.41
2018-06-25T08:41:57.727Z,23.38
2018-06-25T08:44:12.206Z,23.43
2018-06-25T08:46:30.774Z,23.48
2018-06-25T08:48:43.988Z,23.47
2018-06-25T08:51:02.158Z,23.45
2018-06-25T08:53:28.716Z,23.47
2018-06-25T08:55:39.540Z,23.55
2018-06-25T08:57:45.895Z,23.63
2018-06-25T08:59:51.359Z,23.73
2018-06-25T09:01:56.760Z,23.78
2018-06-25T09:04:02.182Z,23.85
2018-06-25T09:06:07.618Z,23.85
2018-06-25T09:08:12.921Z,23.83
2018-06-25T09:10:18.376Z,23.87
2018-06-25T09:12:23.795Z,23.95
2018-06-25T09:14:29.100Z,24.03
2018-06-25T09:16:34.489Z,24.10
2018-06-25T09:18:39.779Z,24.16
2018-06-25T09:20:45.152Z,24.21
2018-06-25T09:22:50.516Z,24.21
2018-06-25T09:24:56.028Z,24.26
2018-06-25T09:27:01.367Z,24.33
2018-06-25T09:29:06.699Z,24.32
2018-06-25T09:31:12.053Z,24.29
2018-06-25T09:33:17.440Z,24.32
2018-06-25T09:35:22.955Z,24.43
2018-06-25T09:37:28.283Z,24.51
2018-06-25T09:39:33.690Z,24.57
2018-06-25T09:41:39.150Z,24.64
2018-06-25T09:43:44.372Z,24.66
2018-06-25T09:45:50.137Z,24.68
2018-06-25T09:47:55.504Z,24.73
2018-06-25T09:50:01.002Z,24.76
2018-06-25T09:52:06.476Z,24.79
2018-06-25T09:54:12.011Z,24.78
2018-06-25T09:56:17.396Z,24.73
2018-06-25T09:58:22.878Z,24.70
2018-06-25T10:00:34.042Z,24.63
2018-06-25T10:02:39.539Z,24.55
2018-06-25T10:04:44.540Z,24.51
2018-06-25T10:06:49.811Z,24.48
2018-06-25T10:08:55.186Z,24.51
2018-06-25T10:11:00.530Z,24.61
2018-06-25T10:13:05.909Z,24.71
2018-06-25T10:15:11.360Z,24.79
2018-06-25T10:17:16.786Z,24.83
2018-06-25T10:19:21.684Z,24.79
2018-06-25T10:21:27.496Z,24.73
2018-06-25T10:23:32.783Z,24.71
2018-06-25T10:25:38.182Z,24.69
2018-06-25T10:27:43.701Z,24.69
2018-06-25T10:29:49.025Z,24.69
2018-06-25T10:31:54.303Z,24.71
2018-06-25T10:33:59.688Z,24.75
2018-06-25T10:36:05.160Z,24.80
2018-06-25T10:38:10.726Z,24.81
2018-06-25T10:40:16.128Z,24.79
2018-06-25T10:42:21.585Z,24.80
2018-06-25T10:44:27.440Z,24.90
2018-06-25T10:46:32.801Z,24.97
2018-06-25T10:48:38.273Z,25.03
2018-06-25T10:50:43.314Z,25.09
2018-06-25T10:59:39.923Z,25.10
2018-06-25T11:01:45.373Z,24.93
2018-06-25T11:03:50.782Z,25.00
2018-06-25T11:05:56.347Z,25.09
2018-06-25T11:08:01.884Z,25.20
2018-06-25T11:10:07.328Z,25.32
2018-06-25T11:12:12.824Z,25.39
2018-06-25T11:14:18.406Z,25.43
2018-06-25T11:16:23.712Z,25.45
2018-06-25T11:18:29.267Z,25.48
2018-06-25T11:20:34.857Z,25.48
2018-06-25T11:22:40.271Z,25.53
2018-06-25T11:24:45.697Z,25.61
2018-06-25T11:26:51.139Z,25.66
2018-06-25T11:28:56.500Z,25.73
2018-06-25T11:31:01.899Z,25.77
2018-06-25T11:33:07.671Z,25.79
2018-06-25T11:35:13.103Z,25.79
2018-06-25T11:37:18.660Z,25.80
2018-06-25T11:39:24.049Z,25.84
2018-06-25T11:41:29.514Z,25.86
2018-06-25T11:43:34.952Z,25.85
2018-06-25T11:45:40.464Z,25.83
2018-06-25T11:47:45.851Z,25.80
2018-06-25T11:49:51.256Z,25.78
2018-06-25T11:51:56.631Z,25.69
2018-06-25T11:54:02.167Z,25.55
2018-06-25T11:56:07.703Z,25.44
2018-06-25T11:58:13.131Z,25.39
2018-06-25T12:00:18.518Z,25.39
2018-06-25T12:02:24.032Z,25.43
2018-06-25T12:04:29.948Z,25.53
2018-06-25T12:06:38.760Z,25.68
2018-06-25T12:08:44.209Z,25.81
2018-06-25T12:10:49.883Z,25.93
2018-06-25T12:12:55.478Z,25.99
2018-06-25T12:15:00.827Z,26.06
2018-06-25T12:17:06.182Z,26.13
2018-06-25T12:19:11.709Z,26.18
2018-06-25T12:21:17.109Z,26.20
2018-06-25T12:23:22.473Z,26.22
2018-06-25T12:25:27.865Z,26.20
2018-06-25T12:27:33.252Z,26.22
2018-06-25T12:29:38.565Z,26.24
2018-06-25T12:31:43.962Z,26.28
2018-06-25T12:33:49.365Z,26.30
2018-06-25T12:35:54.847Z,26.30
2018-06-25T12:38:00.273Z,26.29
2018-06-25T12:40:05.731Z,26.32
2018-06-25T12:42:11.098Z,26.34
2018-06-25T12:44:16.420Z,26.40
2018-06-25T12:46:21.751Z,26.48
2018-06-25T12:48:27.836Z,26.51
2018-06-25T12:50:33.156Z,26.55
2018-06-25T12:52:38.597Z,26.60
2018-06-25T12:54:44.028Z,26.55
2018-06-25T12:56:49.484Z,26.53
2018-06-25T12:58:54.887Z,26.52
2018-06-25T13:01:00.227Z,26.55
2018-06-25T13:03:05.800Z,26.61
2018-06-25T13:05:11.857Z,26.69
2018-06-25T13:07:17.225Z,26.75
2018-06-25T13:09:22.614Z,26.85
2018-06-25T13:11:27.893Z,26.89
2018-06-25T13:13:33.288Z,26.95
2018-06-25T13:15:38.640Z,27.01
2018-06-25T13:17:44.170Z,27.05
2018-06-25T13:19:49.555Z,27.03
2018-06-25T13:21:54.985Z,27.00
2018-06-25T13:24:00.378Z,26.90
2018-06-25T13:26:05.771Z,26.77
2018-06-25T13:28:11.172Z,26.69
2018-06-25T13:30:16.677Z,26.70
2018-06-25T13:32:22.007Z,26.69
2018-06-25T13:34:27.936Z,26.68
2018-06-25T13:36:33.063Z,26.68
2018-06-25T13:38:38.340Z,26.68
2018-06-25T13:40:43.734Z,26.73
2018-06-25T13:42:49.138Z,26.71
2018-06-25T13:44:54.486Z,26.70
2018-06-25T13:46:59.881Z,26.73
2018-06-25T13:49:05.069Z,26.74
2018-06-25T13:51:10.389Z,26.76
2018-06-25T13:53:16.547Z,26.77
2018-06-25T13:55:21.947Z,26.82
2018-06-25T13:57:27.994Z,26.85
2018-06-25T13:59:33.105Z,26.93
2018-06-25T14:01:38.403Z,27.01
2018-06-25T14:03:43.835Z,27.08
2018-06-25T14:05:49.291Z,27.13
2018-06-25T14:07:55.006Z,27.16
2018-06-25T14:10:00.492Z,27.19
2018-06-25T14:12:06.144Z,27.18
2018-06-25T14:14:11.698Z,27.15
2018-06-25T14:16:17.168Z,27.09
2018-06-25T14:18:22.505Z,27.08
2018-06-25T14:20:28.041Z,27.02
2018-06-25T14:22:33.479Z,26.98
2018-06-25T14:24:44.152Z,26.94
2018-06-25T14:26:49.532Z,26.90
2018-06-25T14:28:54.971Z,26.84
2018-06-25T14:31:05.867Z,26.80
2018-06-25T14:33:10.927Z,26.73
2018-06-25T14:35:16.827Z,26.66
2018-06-25T14:37:22.327Z,26.62
2018-06-25T14:39:28.009Z,26.64
2018-06-25T14:41:33.424Z,26.69
2018-06-25T14:43:38.757Z,26.74
2018-06-25T14:45:44.104Z,26.80
2018-06-25T14:47:49.492Z,26.83
2018-06-25T14:49:54.942Z,26.90
2018-06-25T14:52:00.331Z,26.96
2018-06-25T14:54:05.811Z,27.03
2018-06-25T14:56:11.243Z,27.10
2018-06-25T14:58:16.635Z,27.14
2018-06-25T15:00:22.381Z,27.16
2018-06-25T15:02:28.890Z,27.20
2018-06-25T15:04:34.355Z,27.21
2018-06-25T15:06:39.861Z,27.25
2018-06-25T15:08:45.455Z,27.28
2018-06-25T15:10:50.799Z,27.29
2018-06-25T15:12:56.213Z,27.28
2018-06-25T15:15:01.718Z,27.29
2018-06-25T15:17:07.456Z,27.29
2018-06-25T15:19:12.861Z,27.29
2018-06-25T15:21:18.376Z,27.33
2018-06-25T15:23:24.003Z,27.42
2018-06-25T15:25:29.530Z,27.48
2018-06-25T15:27:34.935Z,27.50
2018-06-25T15:29:40.352Z,27.52
2018-06-25T15:31:45.721Z,27.54
2018-06-25T15:33:51.061Z,27.51
2018-06-25T15:35:56.482Z,27.48
2018-06-25T15:38:01.840Z,27.45
2018-06-25T15:40:07.318Z,27.40
2018-06-25T15:42:12.818Z,27.38
2018-06-25T15:44:18.201Z,27.36
2018-06-25T15:46:23.639Z,27.34
2018-06-25T15:48:29.083Z,27.31
2018-06-25T15:50:34.521Z,27.29
2018-06-25T15:52:40.007Z,27.28
2018-06-25T15:54:45.413Z,27.27
2018-06-25T15:56:50.796Z,27.30
2018-06-25T15:58:56.331Z,27.35
2018-06-25T16:01:01.770Z,27.39
2018-06-25T16:03:07.217Z,27.43
2018-06-25T16:05:12.582Z,27.48
2018-06-25T16:07:17.953Z,27.53
2018-06-25T16:09:23.332Z,27.57
2018-06-25T16:11:28.734Z,27.62
2018-06-25T16:13:34.163Z,27.67
2018-06-25T16:15:39.575Z,27.73
2018-06-25T16:17:45.126Z,27.78
2018-06-25T16:19:50.498Z,27.79
2018-06-25T16:21:55.975Z,27.79
2018-06-25T16:24:01.503Z,27.75
2018-06-25T16:26:06.998Z,27.74
2018-06-25T16:28:12.356Z,27.73
2018-06-25T16:30:17.787Z,27.68
2018-06-25T16:32:23.485Z,27.64
2018-06-25T16:34:28.925Z,27.59
2018-06-25T16:36:34.545Z,27.56
2018-06-25T16:38:40.154Z,27.54
2018-06-25T16:40:45.936Z,27.52
2018-06-25T16:42:51.612Z,27.50
2018-06-25T16:44:57.116Z,27.52
2018-06-25T16:47:02.501Z,27.50
2018-06-25T16:49:07.627Z,27.45
2018-06-25T16:51:12.913Z,27.41
2018-06-25T16:53:18.267Z,27.35
2018-06-25T16:55:23.681Z,27.32
2018-06-25T16:57:29.026Z,27.31
2018-06-25T16:59:34.595Z,27.29
2018-06-25T17:01:39.768Z,27.31
2018-06-25T17:03:45.219Z,27.28
2018-06-25T17:05:50.699Z,27.24
2018-06-25T17:07:56.138Z,27.25
2018-06-25T17:10:01.541Z,27.27
2018-06-25T17:12:06.605Z,27.32
2018-06-25T17:14:11.902Z,27.29
2018-06-25T17:16:17.334Z,27.28
2018-06-25T17:18:22.681Z,27.29
2018-06-25T17:20:28.622Z,27.32
2018-06-25T17:22:34.076Z,27.35
2018-06-25T17:24:39.457Z,27.35
2018-06-25T17:26:44.978Z,27.34
2018-06-25T17:28:50.383Z,27.36
2018-06-25T17:30:55.737Z,27.39
2018-06-25T17:33:01.172Z,27.42
2018-06-25T17:35:06.637Z,27.42
2018-06-25T17:37:12.030Z,27.38
2018-06-25T17:39:17.565Z,27.36
2018-06-25T17:41:23.020Z,27.39
2018-06-25T17:43:28.657Z,27.37
2018-06-25T17:45:34.181Z,27.36
2018-06-25T17:47:39.569Z,27.33
2018-06-25T17:49:44.969Z,27.29
2018-06-25T17:51:50.483Z,27.27
2018-06-25T17:53:55.848Z,27.27
2018-06-25T17:56:01.288Z,27.27
2018-06-25T17:58:06.894Z,27.24
2018-06-25T18:00:12.362Z,27.20
2018-06-25T18:02:17.892Z,27.19
2018-06-25T18:04:23.421Z,27.20
2018-06-25T18:06:28.985Z,27.20
2018-06-25T18:08:34.434Z,27.22
2018-06-25T18:10:39.769Z,27.23
2018-06-25T18:12:45.238Z,27.21
2018-06-25T18:14:50.808Z,27.18
2018-06-25T18:16:56.219Z,27.10
2018-06-25T18:19:01.651Z,27.04
2018-06-25T18:21:07.119Z,27.01
2018-06-25T18:23:12.668Z,27.00
2018-06-25T18:25:18.277Z,27.02
2018-06-25T18:27:23.355Z,27.04
2018-06-25T18:29:29.269Z,27.05
2018-06-25T18:31:34.992Z,27.08
2018-06-25T18:33:40.535Z,27.12
2018-06-25T18:35:46.046Z,27.13
2018-06-25T18:37:51.573Z,27.11
2018-06-25T18:39:56.945Z,27.11
2018-06-25T18:42:02.409Z,27.10
2018-06-25T18:44:07.831Z,27.09
2018-06-25T18:46:13.196Z,27.09
2018-06-25T18:48:18.633Z,27.08
2018-06-25T18:50:24.065Z,27.08
2018-06-25T18:52:29.509Z,27.07
2018-06-25T18:54:34.952Z,27.06
2018-06-25T18:56:40.386Z,27.05
2018-06-25T18:58:45.906Z,27.03
2018-06-25T19:00:51.468Z,27.02
2018-06-25T19:02:56.867Z,27.00
2018-06-25T19:05:02.210Z,26.95
2018-06-25T19:07:07.743Z,26.93
2018-06-25T19:09:13.377Z,26.91
2018-06-25T19:11:18.815Z,26.90
2018-06-25T19:13:24.318Z,26.89
2018-06-25T19:15:29.878Z,26.89
2018-06-25T19:17:35.314Z,26.87
2018-06-25T19:19:40.837Z,26.84
2018-06-25T19:21:46.176Z,26.81
2018-06-25T19:23:51.540Z,26.78
2018-06-25T19:25:57.088Z,26.73
2018-06-25T19:28:02.612Z,26.65
2018-06-25T19:30:08.268Z,26.55
2018-06-25T19:32:16.576Z,26.40
2018-06-25T19:34:22.054Z,26.24
2018-06-25T19:36:27.593Z,26.09
2018-06-25T19:38:33.123Z,25.99
2018-06-25T19:40:38.538Z,25.90
2018-06-25T19:42:43.960Z,25.82
2018-06-25T19:44:49.407Z,25.76
2018-06-25T19:46:54.763Z,25.70
2018-06-25T19:49:00.205Z,25.63
2018-06-25T19:51:05.808Z,25.57
2018-06-25T19:53:11.266Z,25.50
2018-06-25T19:55:16.665Z,25.45
2018-06-25T19:57:22.001Z,25.40
2018-06-25T19:59:27.430Z,25.37
2018-06-25T20:01:32.941Z,25.30
2018-06-25T20:03:38.429Z,25.26
2018-06-25T20:05:43.833Z,25.18
2018-06-25T20:07:49.310Z,25.12
2018-06-25T20:09:54.773Z,25.08
2018-06-25T20:12:00.149Z,25.05
2018-06-25T20:14:05.907Z,25.01
2018-06-25T20:16:11.374Z,24.97
2018-06-25T20:18:16.791Z,24.95
2018-06-25T20:20:22.317Z,24.91
2018-06-25T20:22:29.119Z,24.90
2018-06-25T20:24:34.532Z,24.87
2018-06-25T20:26:39.933Z,24.87
2018-06-25T20:28:45.356Z,24.87
2018-06-25T20:30:50.856Z,24.84
2018-06-25T20:32:56.563Z,24.83
2018-06-25T20:35:01.997Z,24.80
2018-06-25T20:37:07.477Z,24.76
2018-06-25T20:39:13.005Z,24.73
2018-06-25T20:41:18.420Z,24.71
2018-06-25T20:43:23.812Z,24.69
2018-06-25T20:45:29.288Z,24.66
2018-06-25T20:47:34.712Z,24.62
2018-06-25T20:49:40.146Z,24.60
2018-06-25T20:51:45.692Z,24.57
2018-06-25T20:53:50.855Z,24.54
2018-06-25T20:55:56.382Z,24.53
2018-06-25T20:58:01.796Z,24.49
2018-06-25T21:00:06.899Z,24.47
2018-06-25T21:02:12.197Z,24.46
2018-06-25T21:04:17.660Z,24.43
2018-06-25T21:06:23.060Z,24.42
2018-06-25T21:08:29.222Z,24.41
2018-06-25T21:10:34.663Z,24.35
2018-06-25T21:12:40.074Z,24.31
2018-06-25T21:14:45.521Z,24.29
2018-06-25T21:16:50.932Z,24.26
2018-06-25T21:18:56.380Z,24.23
2018-06-25T21:21:01.775Z,24.19
2018-06-25T21:23:07.587Z,24.14
2018-06-25T21:25:12.965Z,24.11
2018-06-25T21:27:18.404Z,24.05
2018-06-25T21:29:23.880Z,24.00
2018-06-25T21:31:29.348Z,23.97
2018-06-25T21:33:34.446Z,23.93
2018-06-25T21:35:39.939Z,23.90
2018-06-25T21:37:44.992Z,23.86
2018-06-25T21:39:50.425Z,23.82
2018-06-25T21:41:55.840Z,23.81
2018-06-25T21:44:01.223Z,23.79
2018-06-25T21:46:06.777Z,23.72
2018-06-25T21:48:12.232Z,23.68
2018-06-25T21:50:17.589Z,23.65
2018-06-25T21:52:23.108Z,23.61
2018-06-25T21:54:29.284Z,23.56
2018-06-25T21:56:34.632Z,23.53
2018-06-25T21:58:40.209Z,23.50
2018-06-25T22:00:51.019Z,23.48
2018-06-25T22:02:56.345Z,23.49
2018-06-25T22:05:01.705Z,23.51
2018-06-25T22:07:07.106Z,23.53
2018-06-25T22:09:12.503Z,23.53
2018-06-25T22:11:17.856Z,23.55
2018-06-25T22:13:23.380Z,23.58
2018-06-25T22:15:29.401Z,23.61
2018-06-25T22:17:34.825Z,23.62
2018-06-25T22:19:40.114Z,23.61
2018-06-25T22:21:45.457Z,23.62
2018-06-25T22:23:50.787Z,23.63
2018-06-25T22:25:56.149Z,23.59
2018-06-25T22:28:01.522Z,23.54
2018-06-25T22:30:06.894Z,23.51
2018-06-25T22:32:12.295Z,23.50
2018-06-25T22:34:17.593Z,23.48
2018-06-25T22:36:23.808Z,23.45
2018-06-25T22:38:29.582Z,23.41
2018-06-25T22:40:34.911Z,23.37
2018-06-25T22:42:40.743Z,23.31
2018-06-25T22:44:46.132Z,23.25
2018-06-25T22:46:51.462Z,23.19
2018-06-25T22:48:56.842Z,23.10
2018-06-25T22:51:02.143Z,23.01
2018-06-25T22:53:07.436Z,22.86
2018-06-25T22:55:12.780Z,22.70
2018-06-25T22:57:18.078Z,22.51
2018-06-25T22:59:23.600Z,22.39
2018-06-25T23:01:29.849Z,22.31
2018-06-25T23:03:35.185Z,22.25
2018-06-25T23:05:40.528Z,22.20
2018-06-25T23:07:45.927Z,22.18
2018-06-25T23:09:51.245Z,22.16
2018-06-25T23:11:56.572Z,22.15
2018-06-25T23:14:01.877Z,22.10
2018-06-25T23:16:07.255Z,22.05
2018-06-25T23:18:12.790Z,22.02
2018-06-25T23:20:18.116Z,21.99
2018-06-25T23:22:23.477Z,21.94
2018-06-25T23:24:29.924Z,21.89
2018-06-25T23:26:35.177Z,21.84
2018-06-25T23:28:40.549Z,21.77
2018-06-25T23:30:45.865Z,21.73
2018-06-25T23:32:51.223Z,21.67
2018-06-25T23:34:56.644Z,21.61
2018-06-25T23:37:01.936Z,21.53
2018-06-25T23:39:10.690Z,21.49
2018-06-25T23:41:16.031Z,21.44
2018-06-25T23:43:21.309Z,21.37
2018-06-25T23:45:26.644Z,21.30
2018-06-25T23:47:32.005Z,21.22
2018-06-25T23:49:37.412Z,21.13
2018-06-25T23:51:42.711Z,21.06
2018-06-25T23:53:48.031Z,20.96
2018-06-25T23:55:53.312Z,20.89
2018-06-25T23:57:58.733Z,20.81
